Time;durP1;ratioP1;P1;durP2;ratioP2;P2;SDS_P1;SDS_P2;PMS_P1;PMS_P2;Temp;Humidity;BMP_temperature;BMP_pressure;BME280_temperature;BME280_humidity;BME280_pressure;Samples;Min_cycle;Max_cycle;Signal;HPM_P1;HPM_P2
2023/07/05 00:01:46;;;;;;;9.05;4.13;;;31.30;99.90;;;;;;4868510;29;20057;-46
2023/07/05 00:04:12;;;;;;;9.25;4.63;;;31.20;99.90;;;;;;4861771;29;20029;-46
2023/07/05 00:06:38;;;;;;;8.80;4.38;;;31.20;99.90;;;;;;4861970;29;20386;-46
2023/07/05 00:09:03;;;;;;;7.63;4.63;;;31.20;99.90;;;;;;4861805;29;20049;-46
2023/07/05 00:11:29;;;;;;;12.63;5.88;;;31.20;99.90;;;;;;4862924;29;20037;-46
2023/07/05 00:13:55;;;;;;;7.90;5.43;;;31.20;99.90;;;;;;4864413;29;20034;-46
2023/07/05 00:16:21;;;;;;;8.73;5.28;;;31.20;99.90;;;;;;4861905;29;20036;-46
2023/07/05 00:18:47;;;;;;;9.50;4.80;;;31.20;99.90;;;;;;4864068;29;20394;-46
2023/07/05 00:21:13;;;;;;;12.35;3.88;;;31.20;99.90;;;;;;4866074;29;20029;-46
2023/07/05 00:23:43;;;;;;;10.25;4.32;;;31.10;99.90;;;;;;4861649;29;20033;-46
2023/07/05 00:26:09;;;;;;;9.07;4.05;;;31.10;99.90;;;;;;4861683;29;20068;-46
2023/07/05 00:28:34;;;;;;;10.43;4.40;;;31.10;99.90;;;;;;4866032;29;20045;-46
2023/07/05 00:31:02;;;;;;;6.88;4.15;;;31.10;99.90;;;;;;4845147;29;20062;-46
2023/07/05 00:33:28;;;;;;;9.27;4.47;;;31.10;99.90;;;;;;4861420;29;20074;-46
2023/07/05 00:35:54;;;;;;;10.02;5.72;;;31.10;99.90;;;;;;4861798;29;20029;-46
2023/07/05 00:38:21;;;;;;;17.83;6.07;;;31.10;99.90;;;;;;4846091;29;20473;-46
2023/07/05 00:40:48;;;;;;;16.10;5.72;;;31.10;99.90;;;;;;4861393;29;20033;-46
2023/07/05 00:43:16;;;;;;;13.38;5.95;;;31.10;99.90;;;;;;4861555;29;20109;-46
2023/07/05 00:46:00;;;;;;;12.32;4.97;;;31.10;99.90;;;;;;4860800;29;20061;-46
2023/07/05 00:48:59;;;;;;;12.57;4.85;;;31.10;99.90;;;;;;4861586;29;20030;-46
2023/07/05 00:51:47;;;;;;;9.10;4.10;;;31.00;99.90;;;;;;4863236;29;20041;-46
2023/07/05 00:54:16;;;;;;;13.40;3.70;;;31.00;99.90;;;;;;4861066;29;20022;-47
2023/07/05 00:56:54;;;;;;;8.77;4.07;;;31.00;99.90;;;;;;4861000;29;20041;-47
2023/07/05 00:59:23;;;;;;;6.97;3.63;;;31.00;99.90;;;;;;4862605;29;20109;-47
2023/07/05 01:01:49;;;;;;;10.02;4.20;;;31.00;99.90;;;;;;4851050;29;20480;-46
2023/07/05 01:04:15;;;;;;;12.80;5.10;;;31.00;99.90;;;;;;4860782;29;20443;-46
2023/07/05 01:06:43;;;;;;;8.68;5.20;;;31.00;99.90;;;;;;4844452;29;20081;-47
2023/07/05 01:09:08;;;;;;;7.47;4.15;;;31.00;99.90;;;;;;4844020;29;20033;-46
2023/07/05 01:11:37;;;;;;;10.35;4.68;;;30.90;99.90;;;;;;4860853;29;20113;-46
2023/07/05 01:14:15;;;;;;;8.75;4.35;;;30.90;99.90;;;;;;4860612;29;20033;-46
2023/07/05 01:17:12;;;;;;;12.00;3.92;;;30.90;99.90;;;;;;4860689;29;20026;-46
2023/07/05 01:19:41;;;;;;;10.75;5.80;;;30.90;99.90;;;;;;4853732;29;20063;-47
2023/07/05 01:22:13;;;;;;;17.52;6.13;;;30.90;99.90;;;;;;4860715;29;20025;-46
2023/07/05 01:25:10;;;;;;;13.10;5.05;;;30.80;99.90;;;;;;4860360;29;20040;-46
2023/07/05 01:27:45;;;;;;;11.00;5.07;;;30.80;99.90;;;;;;4860526;29;20030;-46
2023/07/05 01:30:28;;;;;;;13.90;5.93;;;30.80;99.90;;;;;;4860692;29;20073;-46
2023/07/05 01:33:02;;;;;;;9.75;4.80;;;30.80;99.90;;;;;;4860421;29;20391;-46
2023/07/05 01:35:44;;;;;;;16.08;5.50;;;30.70;99.90;;;;;;4860503;29;20040;-45
2023/07/05 01:38:10;;;;;;;9.60;4.47;;;30.70;99.90;;;;;;4860438;29;20057;-45
2023/07/05 01:40:38;;;;;;;9.38;4.97;;;30.60;99.90;;;;;;4860216;29;20186;-46
2023/07/05 01:43:15;;;;;;;17.02;4.85;;;30.60;99.90;;;;;;4860435;29;20484;-46
2023/07/05 01:46:00;;;;;;;12.23;4.53;;;30.50;99.90;;;;;;4843637;29;20137;-46
2023/07/05 01:48:49;;;;;;;9.15;4.18;;;30.50;99.90;;;;;;4860168;29;20042;-46
2023/07/05 01:51:28;;;;;;;9.27;4.30;;;30.40;99.90;;;;;;4848546;29;20117;-46
2023/07/05 01:54:09;;;;;;;10.85;4.60;;;30.40;99.90;;;;;;4859915;29;20104;-47
2023/07/05 01:56:47;;;;;;;12.43;4.38;;;30.40;99.90;;;;;;4859460;29;20021;-47
2023/07/05 01:59:14;;;;;;;8.90;4.78;;;30.30;99.90;;;;;;4861358;29;20398;-47
2023/07/05 02:01:42;;;;;;;11.25;4.25;;;30.30;99.90;;;;;;4866678;29;20045;-47
2023/07/05 02:04:11;;;;;;;8.93;4.70;;;30.30;99.90;;;;;;4860006;29;20107;-47
2023/07/05 02:06:38;;;;;;;11.60;4.80;;;30.30;99.90;;;;;;4866905;29;20107;-47
2023/07/05 02:09:03;;;;;;;13.15;4.97;;;30.30;99.90;;;;;;4861719;29;20033;-47
2023/07/05 02:11:29;;;;;;;9.85;4.57;;;30.30;99.90;;;;;;4869447;29;20037;-47
2023/07/05 02:13:56;;;;;;;13.43;4.20;;;30.20;99.90;;;;;;4859775;29;20029;-47
2023/07/05 02:16:22;;;;;;;10.32;4.60;;;30.20;99.90;;;;;;4859753;29;20025;-47
2023/07/05 02:18:48;;;;;;;7.38;4.35;;;30.20;99.90;;;;;;4863125;29;20041;-47
2023/07/05 02:21:14;;;;;;;15.07;4.28;;;30.20;99.90;;;;;;4867823;29;20025;-47
2023/07/05 02:23:40;;;;;;;9.70;3.80;;;30.20;99.90;;;;;;4859537;29;20108;-47
2023/07/05 02:26:06;;;;;;;6.97;3.40;;;30.20;99.90;;;;;;4859858;29;20541;-47
2023/07/05 02:28:33;;;;;;;11.45;3.50;;;30.20;99.90;;;;;;4860036;29;20116;-47
2023/07/05 02:31:09;;;;;;;10.27;4.63;;;30.20;99.90;;;;;;4867761;29;20033;-46
2023/07/05 02:33:35;;;;;;;12.88;4.10;;;30.20;99.90;;;;;;4859788;29;20056;-47
2023/07/05 02:36:09;;;;;;;8.82;3.33;;;30.20;99.90;;;;;;4847626;29;20491;-46
2023/07/05 02:38:35;;;;;;;10.15;4.10;;;30.10;99.90;;;;;;4859490;29;20054;-46
2023/07/05 02:41:01;;;;;;;11.68;4.20;;;30.10;99.90;;;;;;4866180;29;20057;-47
2023/07/05 02:43:26;;;;;;;11.48;4.47;;;30.10;99.90;;;;;;4859716;29;20539;-47
2023/07/05 02:45:52;;;;;;;13.20;4.70;;;30.10;99.90;;;;;;4859402;29;20029;-47
2023/07/05 02:48:18;;;;;;;12.10;4.70;;;30.10;99.90;;;;;;4863983;29;20029;-47
2023/07/05 02:50:44;;;;;;;12.93;4.60;;;30.00;99.90;;;;;;4850719;29;20356;-46
2023/07/05 02:53:09;;;;;;;18.08;5.40;;;30.00;99.90;;;;;;4842981;29;20036;-46
2023/07/05 02:55:35;;;;;;;10.25;4.05;;;29.90;99.90;;;;;;4859271;29;20030;-47
2023/07/05 02:58:01;;;;;;;12.23;4.35;;;29.90;99.90;;;;;;4859669;29;20479;-47
2023/07/05 03:00:29;;;;;;;8.73;4.25;;;29.90;99.90;;;;;;4859969;29;20545;-47
2023/07/05 03:02:56;;;;;;;11.35;4.45;;;29.80;99.90;;;;;;4859136;29;20052;-46
2023/07/05 03:05:22;;;;;;;12.00;3.90;;;29.80;99.90;;;;;;4859270;29;20021;-47
2023/07/05 03:07:48;;;;;;;12.85;3.97;;;29.80;99.90;;;;;;4860202;29;20030;-47
2023/07/05 03:10:14;;;;;;;7.72;3.92;;;29.80;99.90;;;;;;4867232;29;20033;-47
2023/07/05 03:12:40;;;;;;;6.95;3.85;;;29.70;99.90;;;;;;4863843;29;20030;-48
2023/07/05 03:15:06;;;;;;;9.93;3.20;;;29.70;99.90;;;;;;4862909;29;20567;-47
2023/07/05 03:17:33;;;;;;;14.18;3.58;;;29.70;99.90;;;;;;4846202;29;20486;-47
2023/07/05 03:19:59;;;;;;;6.90;2.92;;;29.70;99.90;;;;;;4851904;29;20503;-47
2023/07/05 03:22:28;;;;;;;9.07;2.70;;;29.70;99.90;;;;;;4866648;29;20040;-48
2023/07/05 03:24:54;;;;;;;14.30;3.78;;;29.60;99.90;;;;;;4862842;29;20463;-46
2023/07/05 03:27:20;;;;;;;10.75;2.80;;;29.60;99.90;;;;;;4862460;29;20085;-46
2023/07/05 03:29:47;;;;;;;11.10;3.25;;;29.60;99.90;;;;;;4862924;29;20034;-46
2023/07/05 03:32:13;;;;;;;9.60;3.33;;;29.50;99.90;;;;;;4876306;29;20069;-46
2023/07/05 03:34:39;;;;;;;14.18;3.33;;;29.50;99.90;;;;;;4862741;29;20081;-47
2023/07/05 03:37:05;;;;;;;10.85;2.83;;;29.40;99.90;;;;;;4862743;29;20108;-47
2023/07/05 03:39:31;;;;;;;10.52;3.03;;;29.30;99.90;;;;;;4863703;29;20024;-47
2023/07/05 03:41:57;;;;;;;8.10;3.53;;;29.30;99.90;;;;;;4862934;29;20397;-47
2023/07/05 03:44:24;;;;;;;11.60;3.20;;;29.20;99.90;;;;;;4869158;29;20032;-46
2023/07/05 03:46:50;;;;;;;10.73;2.72;;;29.10;99.90;;;;;;4862263;29;20033;-47
2023/07/05 03:49:17;;;;;;;19.40;4.38;;;29.10;99.90;;;;;;4862207;29;20029;-47
2023/07/05 03:51:43;;;;;;;28.80;5.25;;;29.00;99.90;;;;;;4870092;29;20065;-46
2023/07/05 03:54:09;;;;;;;10.38;3.53;;;29.00;99.90;;;;;;4845302;29;20538;-46
2023/07/05 03:56:36;;;;;;;14.88;4.30;;;29.00;99.90;;;;;;4845751;29;20121;-46
2023/07/05 03:59:02;;;;;;;13.57;5.03;;;29.00;99.90;;;;;;4862359;29;20029;-46
2023/07/05 04:01:29;;;;;;;11.27;3.70;;;29.00;99.90;;;;;;4863304;29;20069;-46
2023/07/05 04:04:04;;;;;;;10.90;3.72;;;28.90;99.90;;;;;;4861933;29;20041;-47
2023/07/05 04:06:32;;;;;;;15.20;4.20;;;28.90;99.90;;;;;;4863211;29;20029;-47
2023/07/05 04:08:58;;;;;;;15.23;4.97;;;28.90;99.90;;;;;;4845084;29;20029;-47
2023/07/05 04:11:24;;;;;;;15.00;4.65;;;28.90;99.90;;;;;;4865434;29;20073;-47
2023/07/05 04:13:51;;;;;;;9.35;4.40;;;28.80;99.90;;;;;;4861784;29;21885;-46
2023/07/05 04:16:21;;;;;;;11.67;4.30;;;28.80;99.90;;;;;;4861587;29;20056;-46
2023/07/05 04:18:49;;;;;;;11.65;5.47;;;28.80;99.90;;;;;;4861365;29;20029;-47
2023/07/05 04:21:16;;;;;;;13.90;4.65;;;28.70;99.90;;;;;;4861691;29;20429;-47
2023/07/05 04:23:42;;;;;;;15.23;5.53;;;28.60;99.90;;;;;;4861536;29;20034;-47
2023/07/05 04:26:11;;;;;;;10.98;5.13;;;28.60;99.90;;;;;;4861654;29;20037;-47
2023/07/05 04:28:38;;;;;;;16.02;5.40;;;28.60;99.90;;;;;;4861518;29;20040;-47
2023/07/05 04:31:10;;;;;;;15.05;6.38;;;28.60;99.90;;;;;;4863111;29;20041;-47
2023/07/05 04:33:36;;;;;;;23.13;6.97;;;28.60;99.90;;;;;;4861657;29;20033;-47
2023/07/05 04:36:03;;;;;;;23.38;8.07;;;28.60;99.90;;;;;;4861817;29;20037;-46
2023/07/05 04:38:29;;;;;;;12.40;5.90;;;28.60;99.90;;;;;;4861367;29;20066;-47
2023/07/05 04:40:56;;;;;;;12.32;6.38;;;28.50;99.90;;;;;;4861676;29;20065;-46
2023/07/05 04:43:22;;;;;;;15.35;5.45;;;28.50;99.90;;;;;;4844728;29;20073;-47
2023/07/05 04:45:56;;;;;;;15.27;5.53;;;28.40;99.90;;;;;;4861436;29;20057;-46
2023/07/05 04:48:24;;;;;;;13.45;4.68;;;28.30;99.90;;;;;;4863517;29;20041;-46
2023/07/05 04:50:52;;;;;;;12.80;5.15;;;28.30;99.90;;;;;;4869325;29;20093;-46
2023/07/05 04:53:19;;;;;;;12.68;4.93;;;28.30;99.90;;;;;;4863951;29;20058;-47
2023/07/05 04:55:53;;;;;;;12.50;5.87;;;28.30;99.90;;;;;;4860907;29;20029;-47
2023/07/05 04:58:21;;;;;;;10.75;4.82;;;28.30;99.90;;;;;;4863494;29;20732;-47
2023/07/05 05:00:49;;;;;;;20.80;5.93;;;28.30;99.90;;;;;;4848611;29;20090;-47
2023/07/05 05:03:21;;;;;;;12.18;5.47;;;28.30;99.90;;;;;;4861018;29;20572;-47
2023/07/05 05:05:48;;;;;;;11.38;4.93;;;28.30;99.90;;;;;;4860978;29;20052;-47
2023/07/05 05:08:14;;;;;;;15.82;5.60;;;28.30;99.90;;;;;;4844588;29;20052;-47
2023/07/05 05:10:40;;;;;;;20.98;6.18;;;28.30;99.90;;;;;;4861669;29;20487;-47
2023/07/05 05:13:07;;;;;;;16.80;7.30;;;28.20;99.90;;;;;;4844352;29;20427;-47
2023/07/05 05:15:38;;;;;;;17.98;7.22;;;28.20;99.90;;;;;;4860785;29;20061;-47
2023/07/05 05:18:05;;;;;;;18.50;6.50;;;28.20;99.90;;;;;;4860619;29;20116;-47
2023/07/05 05:20:31;;;;;;;18.48;7.35;;;28.20;99.90;;;;;;4861888;29;20063;-47
2023/07/05 05:23:00;;;;;;;12.85;6.63;;;28.20;99.90;;;;;;4860748;29;20037;-47
2023/07/05 05:25:27;;;;;;;16.08;6.53;;;28.20;99.90;;;;;;4860289;29;20033;-47
2023/07/05 05:27:53;;;;;;;17.85;6.88;;;28.20;99.90;;;;;;4860591;29;20033;-47
2023/07/05 05:30:18;;;;;;;16.70;6.88;;;28.20;99.90;;;;;;4860411;29;20045;-47
2023/07/05 05:32:47;;;;;;;15.38;6.85;;;28.20;99.90;;;;;;4870054;29;20089;-46
2023/07/05 05:35:14;;;;;;;21.17;8.13;;;28.20;99.90;;;;;;4860381;29;20026;-47
2023/07/05 05:37:40;;;;;;;15.20;7.57;;;28.20;99.90;;;;;;4860693;29;20033;-46
2023/07/05 05:40:08;;;;;;;13.07;6.32;;;28.20;99.90;;;;;;4861259;29;20450;-47
2023/07/05 05:42:34;;;;;;;17.17;6.55;;;28.20;99.90;;;;;;4860395;29;20064;-47
2023/07/05 05:45:00;;;;;;;19.88;6.88;;;28.20;99.90;;;;;;4860252;29;20057;-46
2023/07/05 05:47:26;;;;;;;13.90;6.28;;;28.20;99.90;;;;;;4843516;29;20133;-47
2023/07/05 05:49:51;;;;;;;16.30;6.40;;;28.20;99.90;;;;;;4860027;29;20036;-47
2023/07/05 05:52:17;;;;;;;16.63;6.93;;;28.20;99.90;;;;;;4860071;29;20037;-47
2023/07/05 05:54:43;;;;;;;18.20;6.75;;;28.20;99.90;;;;;;4867938;29;20092;-47
2023/07/05 05:57:09;;;;;;;19.95;7.25;;;28.20;99.90;;;;;;4844312;29;20199;-47
2023/07/05 05:59:34;;;;;;;18.85;6.95;;;28.20;99.90;;;;;;4860111;29;20550;-47
2023/07/05 06:02:00;;;;;;;19.83;7.22;;;28.20;99.90;;;;;;4859781;29;20045;-47
2023/07/05 06:04:27;;;;;;;22.88;8.38;;;28.20;99.90;;;;;;4866421;29;20033;-47
2023/07/05 06:06:52;;;;;;;26.13;7.63;;;28.20;99.90;;;;;;4843050;29;20479;-47
2023/07/05 06:09:18;;;;;;;20.33;8.30;;;28.20;99.90;;;;;;4860099;29;20275;-47
2023/07/05 06:11:44;;;;;;;21.05;8.57;;;28.20;99.90;;;;;;4859823;29;20064;-47
2023/07/05 06:14:10;;;;;;;19.90;8.20;;;28.20;99.90;;;;;;4866873;29;20428;-48
2023/07/05 06:16:36;;;;;;;21.08;8.48;;;28.20;99.90;;;;;;4859553;29;20058;-48
2023/07/05 06:19:01;;;;;;;20.65;7.80;;;28.20;99.90;;;;;;4859797;29;20049;-48
2023/07/05 06:21:27;;;;;;;22.65;8.95;;;28.30;99.90;;;;;;4862303;29;20444;-48
2023/07/05 06:23:53;;;;;;;21.20;8.63;;;28.30;99.90;;;;;;4865425;29;20467;-47
2023/07/05 06:26:19;;;;;;;19.58;8.38;;;28.30;99.90;;;;;;4844281;29;20037;-47
2023/07/05 06:28:46;;;;;;;33.22;9.60;;;28.40;99.90;;;;;;4874113;29;20029;-46
2023/07/05 06:31:12;;;;;;;19.20;8.95;;;28.40;99.90;;;;;;4860081;29;20125;-46
2023/07/05 06:33:41;;;;;;;20.05;8.27;;;28.40;99.90;;;;;;4859638;29;20443;-47
2023/07/05 06:36:08;;;;;;;22.52;8.85;;;28.40;99.90;;;;;;4845969;29;20030;-47
2023/07/05 06:38:34;;;;;;;17.50;8.43;;;28.40;99.90;;;;;;4853054;29;20481;-46
2023/07/05 06:41:00;;;;;;;22.00;8.77;;;28.40;99.90;;;;;;4868377;29;20273;-46
2023/07/05 06:43:26;;;;;;;25.33;8.93;;;28.40;99.90;;;;;;4870625;29;20423;-46
2023/07/05 06:45:54;;;;;;;24.73;9.27;;;28.30;99.90;;;;;;4863533;29;20543;-46
2023/07/05 06:48:21;;;;;;;21.48;8.93;;;28.40;99.90;;;;;;4866701;29;20528;-47
2023/07/05 06:50:54;;;;;;;20.15;9.65;;;28.50;99.90;;;;;;4847137;29;20041;-47
2023/07/05 06:53:21;;;;;;;17.73;9.30;;;28.50;99.90;;;;;;4855420;29;20029;-48
2023/07/05 06:55:48;;;;;;;21.63;9.53;;;28.50;99.90;;;;;;4863039;29;20523;-46
2023/07/05 06:58:15;;;;;;;22.60;9.95;;;28.60;99.90;;;;;;4863430;29;20025;-46
2023/07/05 07:00:41;;;;;;;26.00;10.38;;;28.60;99.90;;;;;;4863161;29;20026;-47
2023/07/05 07:03:06;;;;;;;23.75;9.80;;;28.60;99.90;;;;;;4862874;29;20045;-48
2023/07/05 07:05:32;;;;;;;21.25;10.20;;;28.60;99.90;;;;;;4862820;29;20360;-46
2023/07/05 07:07:59;;;;;;;26.42;9.68;;;28.70;99.90;;;;;;4862718;29;20025;-47
2023/07/05 07:10:25;;;;;;;28.60;10.45;;;28.70;99.90;;;;;;4863025;29;20405;-48
2023/07/05 07:12:50;;;;;;;22.42;10.52;;;28.80;99.90;;;;;;4861625;29;20465;-45
2023/07/05 07:15:16;;;;;;;28.90;11.05;;;28.80;99.90;;;;;;4868317;29;20077;-46
2023/07/05 07:17:42;;;;;;;21.55;9.85;;;28.80;99.90;;;;;;4861087;29;20041;-48
2023/07/05 07:20:08;;;;;;;21.92;10.57;;;28.80;99.90;;;;;;4862961;29;20029;-47
2023/07/05 07:22:34;;;;;;;23.92;10.52;;;28.80;99.90;;;;;;4863119;29;20033;-47
2023/07/05 07:25:00;;;;;;;25.38;10.70;;;28.80;99.90;;;;;;4862960;29;20113;-47
2023/07/05 07:27:26;;;;;;;27.05;12.95;;;28.80;99.90;;;;;;4861379;29;20061;-47
2023/07/05 07:29:54;;;;;;;23.05;11.77;;;28.80;99.90;;;;;;4862241;29;20065;-47
2023/07/05 07:32:20;;;;;;;22.60;11.45;;;28.80;99.90;;;;;;4866436;29;20065;-46
2023/07/05 07:34:46;;;;;;;28.83;11.77;;;28.80;99.90;;;;;;4868362;29;20053;-47
2023/07/05 07:37:12;;;;;;;22.02;11.82;;;28.80;99.90;;;;;;4861388;29;20060;-46
2023/07/05 07:39:38;;;;;;;20.85;11.45;;;28.80;99.90;;;;;;4862388;29;20033;-46
2023/07/05 07:42:04;;;;;;;23.55;12.23;;;28.80;99.90;;;;;;4863394;29;20060;-46
2023/07/05 07:44:29;;;;;;;35.97;12.10;;;28.80;99.90;;;;;;4864560;29;20025;-49
2023/07/05 07:46:57;;;;;;;37.55;12.00;;;28.80;99.90;;;;;;4845006;29;20041;-49
2023/07/05 07:49:23;;;;;;;30.75;11.48;;;28.80;99.90;;;;;;4874095;29;20094;-48
2023/07/05 07:51:48;;;;;;;27.55;10.88;;;28.80;99.90;;;;;;4861319;29;20046;-48
2023/07/05 07:54:17;;;;;;;25.45;11.68;;;28.80;99.90;;;;;;4859933;29;20105;-47
2023/07/05 07:56:44;;;;;;;26.98;10.57;;;28.80;99.90;;;;;;4861817;29;20034;-48
2023/07/05 07:59:10;;;;;;;;;;;28.80;99.90;;;;;;4860585;29;20059;-48
2023/07/05 08:01:37;;;;;;;22.27;9.20;;;28.80;99.90;;;;;;4861071;29;19916;-47
2023/07/05 08:04:04;;;;;;;;;;;28.80;99.90;;;;;;4862348;29;20021;-49
2023/07/05 08:06:39;;;;;;;24.60;11.17;;;28.80;99.90;;;;;;4867469;29;20002;-49
2023/07/05 08:09:07;;;;;;;24.00;11.50;;;28.90;99.90;;;;;;4849289;29;20390;-48
2023/07/05 08:11:34;;;;;;;30.13;11.85;;;28.80;99.90;;;;;;4861606;29;20116;-49
2023/07/05 08:13:59;;;;;;;23.52;10.70;;;28.90;99.90;;;;;;4861650;29;20030;-49
2023/07/05 08:16:25;;;;;;;26.08;11.18;;;28.90;99.90;;;;;;4841867;29;20042;-48
2023/07/05 08:18:51;;;;;;;27.17;11.75;;;28.90;99.90;;;;;;4842014;29;20387;-49
2023/07/05 08:21:18;;;;;;;26.33;11.48;;;28.90;99.90;;;;;;4865458;29;20029;-48
2023/07/05 08:23:44;;;;;;;23.48;11.85;;;28.80;99.90;;;;;;4860983;29;20518;-48
2023/07/05 08:26:11;;;;;;;39.05;11.27;;;28.80;99.90;;;;;;4861041;29;20026;-48
2023/07/05 08:28:37;;;;;;;27.57;11.00;;;28.80;99.90;;;;;;4861129;29;20368;-47
2023/07/05 08:31:05;;;;;;;26.73;11.30;;;28.80;99.90;;;;;;4860803;29;20297;-48
2023/07/05 08:33:32;;;;;;;28.33;12.25;;;28.90;99.90;;;;;;4861068;29;20580;-48
2023/07/05 08:36:14;;;;;;;34.08;13.13;;;28.90;99.90;;;;;;4860996;29;20033;-48
2023/07/05 08:38:42;;;;;;;29.50;11.10;;;28.90;99.90;;;;;;4861361;29;20033;-49
2023/07/05 08:41:33;;;;;;;33.10;12.80;;;29.00;99.90;;;;;;4861213;29;20037;-48
2023/07/05 08:44:05;;;;;;;31.70;11.50;;;29.00;99.90;;;;;;4861409;29;20025;-48
2023/07/05 08:46:32;;;;;;;30.52;11.60;;;29.00;99.90;;;;;;4860909;29;20021;-48
2023/07/05 08:49:07;;;;;;;29.65;12.68;;;28.90;99.90;;;;;;4853109;29;20030;-48
2023/07/05 08:51:33;;;;;;;26.45;11.45;;;29.00;99.90;;;;;;4860511;29;20045;-47
2023/07/05 08:54:02;;;;;;;31.02;13.48;;;29.00;99.90;;;;;;4861041;29;20021;-49
2023/07/05 08:56:47;;;;;;;31.00;12.80;;;29.00;99.90;;;;;;4861077;29;20152;-46
2023/07/05 08:59:49;;;;;;;34.95;14.32;;;29.00;99.90;;;;;;4860297;29;20028;-46
2023/07/05 09:02:19;;;;;;;29.33;13.00;;;29.10;99.90;;;;;;4858644;29;20045;-45
2023/07/05 09:04:47;;;;;;;27.85;11.70;;;29.10;99.90;;;;;;4860226;29;20075;-49
2023/07/05 09:07:50;;;;;;;33.42;12.25;;;29.10;99.90;;;;;;4860569;29;20029;-45
2023/07/05 09:10:27;;;;;;;33.03;13.60;;;29.10;99.90;;;;;;4846106;29;20042;-45
2023/07/05 09:13:16;;;;;;;29.10;11.82;;;29.20;99.90;;;;;;4860642;29;20021;-44
2023/07/05 09:15:47;;;;;;;23.85;11.55;;;29.20;99.90;;;;;;4855511;29;20044;-45
2023/07/05 09:18:18;;;;;;;25.38;11.93;;;29.20;99.90;;;;;;4860166;29;20024;-45
2023/07/05 09:20:53;;;;;;;25.95;13.60;;;29.20;99.90;;;;;;4860621;29;20040;-45
2023/07/05 09:23:40;;;;;;;28.27;13.65;;;29.20;99.90;;;;;;4860824;29;20336;-45
2023/07/05 09:26:24;;;;;;;19.85;10.88;;;29.20;99.90;;;;;;4860406;29;20033;-45
2023/07/05 09:29:04;;;;;;;30.05;13.15;;;29.30;99.90;;;;;;4860699;29;20030;-45
2023/07/05 09:31:30;;;;;;;30.45;14.07;;;29.30;99.90;;;;;;4860138;29;20030;-45
2023/07/05 09:34:23;;;;;;;26.90;12.35;;;29.30;99.90;;;;;;4860554;29;20025;-45
2023/07/05 09:36:50;;;;;;;27.80;12.52;;;29.30;99.90;;;;;;4860503;29;20052;-44
2023/07/05 09:39:38;;;;;;;24.38;11.95;;;29.40;99.90;;;;;;4860028;29;20028;-44
2023/07/05 09:42:09;;;;;;;28.08;12.98;;;29.40;99.90;;;;;;4850611;29;20116;-44
2023/07/05 09:44:35;;;;;;;31.05;12.40;;;29.40;99.90;;;;;;4860209;29;20034;-44
2023/07/05 09:47:00;;;;;;;25.48;11.23;;;29.40;99.90;;;;;;4860208;29;20044;-45
2023/07/05 09:49:27;;;;;;;23.33;12.25;;;29.50;99.90;;;;;;4860186;29;20025;-45
2023/07/05 09:51:53;;;;;;;23.40;12.20;;;29.50;99.90;;;;;;4860067;29;20068;-44
2023/07/05 09:54:29;;;;;;;25.98;11.70;;;29.50;99.90;;;;;;4859962;29;20043;-45
2023/07/05 09:57:06;;;;;;;28.70;10.95;;;29.60;99.90;;;;;;4860204;29;20117;-46
2023/07/05 09:59:33;;;;;;;26.00;10.55;;;29.60;99.90;;;;;;4860210;29;20435;-45
2023/07/05 10:02:12;;;;;;;29.55;11.52;;;29.60;99.90;;;;;;4859763;29;20376;-45
2023/07/05 10:04:46;;;;;;;22.17;11.60;;;29.70;99.90;;;;;;4859796;29;20468;-45
2023/07/05 10:07:20;;;;;;;23.98;11.45;;;29.70;99.90;;;;;;4843354;29;20033;-45
2023/07/05 10:10:12;;;;;;;20.23;10.15;;;29.70;99.90;;;;;;4859666;29;20037;-45
2023/07/05 10:12:41;;;;;;;22.27;10.68;;;29.70;99.90;;;;;;4859713;29;20041;-45
2023/07/05 10:15:22;;;;;;;26.05;11.10;;;29.70;99.90;;;;;;4859855;29;20097;-45
2023/07/05 10:17:49;;;;;;;23.23;11.50;;;29.80;99.90;;;;;;4842316;29;20085;-45
2023/07/05 10:20:24;;;;;;;30.73;11.95;;;29.80;99.90;;;;;;4859886;29;20029;-46
2023/07/05 10:23:04;;;;;;;22.63;11.77;;;29.80;99.90;;;;;;4860125;29;20022;-45
2023/07/05 10:25:40;;;;;;;22.45;11.40;;;29.80;99.90;;;;;;4843069;29;20025;-45
2023/07/05 10:28:07;;;;;;;26.80;11.30;;;29.90;99.90;;;;;;4859564;29;20459;-45
2023/07/05 10:30:51;;;;;;;21.90;11.13;;;29.90;99.90;;;;;;4842941;29;20387;-45
2023/07/05 10:33:24;;;;;;;24.77;11.55;;;29.90;99.90;;;;;;4859563;29;20268;-46
2023/07/05 10:35:58;;;;;;;24.35;11.82;;;29.90;99.90;;;;;;4859723;29;20033;-44
2023/07/05 10:38:29;;;;;;;18.02;11.10;;;29.90;99.90;;;;;;4859789;29;20037;-46
2023/07/05 10:41:06;;;;;;;23.08;10.80;;;30.00;99.90;;;;;;4859747;29;20022;-46
2023/07/05 10:43:32;;;;;;;22.60;10.50;;;30.00;99.90;;;;;;4859672;29;20376;-43
2023/07/05 10:46:00;;;;;;;23.08;10.95;;;30.00;99.90;;;;;;4859277;29;20024;-44
2023/07/05 10:48:31;;;;;;;;;;;30.00;99.90;;;;;;4842946;29;20034;-46
2023/07/05 10:50:57;;;;;;;23.23;11.32;;;30.10;99.90;;;;;;4859282;29;20366;-45
2023/07/05 10:53:26;;;;;;;25.63;10.50;;;30.10;99.90;;;;;;4859406;29;20025;-45
2023/07/05 10:55:57;;;;;;;24.13;11.55;;;30.10;99.90;;;;;;4859621;29;20034;-45
2023/07/05 10:58:40;;;;;;;20.95;11.02;;;30.20;99.90;;;;;;4859665;29;20026;-45
2023/07/05 11:01:24;;;;;;;21.83;10.57;;;30.10;99.90;;;;;;4859028;29;20029;-45
2023/07/05 11:03:58;;;;;;;21.00;12.82;;;30.10;99.90;;;;;;4859351;29;20043;-46
2023/07/05 11:06:27;;;;;;;23.15;11.10;;;30.20;99.90;;;;;;4859417;29;20018;-47
2023/07/05 11:08:53;;;;;;;19.50;11.13;;;30.20;99.90;;;;;;4859599;29;20440;-45
2023/07/05 11:11:27;;;;;;;26.45;13.40;;;30.20;99.90;;;;;;4859339;29;20113;-45
2023/07/05 11:13:54;;;;;;;21.42;11.10;;;30.20;99.90;;;;;;4859686;29;20032;-45
2023/07/05 11:16:23;;;;;;;20.52;10.35;;;30.20;99.90;;;;;;4859221;29;20027;-45
2023/07/05 11:19:04;;;;;;;22.67;10.45;;;30.20;99.90;;;;;;4859127;29;20082;-45
2023/07/05 11:21:44;;;;;;;20.25;11.07;;;30.20;99.90;;;;;;4859055;29;20379;-45
2023/07/05 11:24:32;;;;;;;20.77;9.88;;;30.20;99.90;;;;;;4859093;29;20025;-45
2023/07/05 11:26:59;;;;;;;25.05;11.85;;;30.20;99.90;;;;;;4842690;29;20436;-45
2023/07/05 11:29:27;;;;;;;21.38;10.40;;;30.30;99.90;;;;;;4860846;29;20105;-45
2023/07/05 11:31:53;;;;;;;19.48;10.57;;;30.30;99.90;;;;;;4862325;29;20077;-44
2023/07/05 11:34:22;;;;;;;27.63;11.25;;;30.30;99.90;;;;;;4862392;29;20102;-45
2023/07/05 11:36:49;;;;;;;23.05;10.82;;;30.30;99.90;;;;;;4860054;29;20030;-46
2023/07/05 11:39:33;;;;;;;;;;;30.30;99.90;;;;;;4860882;29;20025;-50
2023/07/05 11:42:20;;;;;;;41.95;18.80;;;30.30;99.90;;;;;;4862245;29;20246;-49
2023/07/05 11:44:47;;;;;;;;;;;30.40;99.90;;;;;;4843945;29;20065;-49
2023/07/05 11:47:22;;;;;;;37.70;15.27;;;30.40;99.90;;;;;;4862329;29;19919;-49
2023/07/05 11:49:52;;;;;;;38.08;21.35;;;30.40;99.90;;;;;;4845417;29;20097;-49
2023/07/05 11:52:35;;;;;;;32.17;20.45;;;30.40;99.90;;;;;;4871032;29;20049;-50
2023/07/05 11:55:09;;;;;;;50.10;29.98;;;30.40;99.90;;;;;;4867668;29;20112;-49
2023/07/05 11:57:57;;;;;;;51.03;36.15;;;30.50;99.90;;;;;;4845445;29;20033;-49
2023/07/05 12:00:37;;;;;;;42.70;29.58;;;30.50;99.90;;;;;;4864700;29;20033;-48
2023/07/05 12:03:23;;;;;;;45.83;28.38;;;30.50;99.90;;;;;;4861572;29;20050;-52
2023/07/05 12:05:59;;;;;;;62.58;37.58;;;30.50;99.90;;;;;;4870407;29;20060;-49
2023/07/05 12:08:37;;;;;;;30.60;15.13;;;30.60;99.90;;;;;;4867477;29;20047;-49
2023/07/05 12:11:03;;;;;;;28.25;16.95;;;30.60;99.90;;;;;;4874247;29;20041;-49
2023/07/05 12:13:34;;;;;;;24.80;12.52;;;30.70;99.90;;;;;;4861841;29;20033;-51
2023/07/05 12:16:03;;;;;;;26.17;12.90;;;30.70;99.90;;;;;;4861644;29;20092;-47
2023/07/05 12:18:31;;;;;;;31.40;15.52;;;30.70;99.90;;;;;;4861677;29;20038;-45
2023/07/05 12:20:58;;;;;;;46.58;32.47;;;30.70;99.90;;;;;;4861633;29;20037;-47
2023/07/05 12:23:29;;;;;;;213.43;152.98;;;30.70;99.90;;;;;;4861613;29;20049;-47
2023/07/05 12:26:01;;;;;;;224.60;163.45;;;30.80;99.90;;;;;;4861495;29;20112;-47
2023/07/05 12:28:30;;;;;;;233.20;165.70;;;30.80;99.90;;;;;;4846433;29;20061;-48
2023/07/05 12:30:58;;;;;;;777.85;538.25;;;30.80;99.90;;;;;;4861407;29;20065;-50
2023/07/05 12:33:27;;;;;;;113.72;71.55;;;30.80;99.90;;;;;;4861744;29;20020;-52
2023/07/05 12:36:16;;;;;;;153.07;95.57;;;30.90;99.90;;;;;;4862008;29;20097;-50
2023/07/05 12:38:44;;;;;;;77.20;45.58;;;30.80;99.90;;;;;;4852602;29;20030;-49
2023/07/05 12:41:28;;;;;;;46.60;25.67;;;30.90;99.90;;;;;;4860676;29;20033;-49
2023/07/05 12:44:05;;;;;;;41.15;23.17;;;30.80;99.90;;;;;;4855066;29;20116;-49
2023/07/05 12:46:33;;;;;;;31.02;18.13;;;30.80;99.90;;;;;;4861100;29;20026;-48
2023/07/05 12:49:22;;;;;;;27.85;13.77;;;30.90;99.90;;;;;;4861197;29;20053;-51
2023/07/05 12:51:54;;;;;;;22.95;13.18;;;30.90;99.90;;;;;;4862156;29;20493;-49